sensor_id;sensor_type;location;lat;lon;timestamp;pressure;altitude;pressure_sealevel;temperature;humidity
13241;BME280;6687;47.790;7.322;2022-12-16T06:11:35;98139.00;;;0.37;100.00
13241;BME280;6687;47.790;7.322;2022-12-16T06:14:19;98138.09;;;0.35;99.46
13241;BME280;6687;47.790;7.322;2022-12-16T06:17:03;98139.16;;;0.42;98.93
13241;BME280;6687;47.790;7.322;2022-12-16T06:19:47;98145.91;;;0.40;98.06
13241;BME280;6687;47.790;7.322;2022-12-16T06:22:31;98152.03;;;0.47;97.46
13241;BME280;6687;47.790;7.322;2022-12-16T06:25:15;98158.69;;;0.43;96.81
13241;BME280;6687;47.790;7.322;2022-12-16T06:28:01;98157.41;;;0.57;96.79
13241;BME280;6687;47.790;7.322;2022-12-16T06:30:45;98169.06;;;0.49;96.46
13241;BME280;6687;47.790;7.322;2022-12-16T06:33:29;98172.63;;;0.54;96.13
13241;BME280;6687;47.790;7.322;2022-12-16T06:36:13;98177.72;;;0.54;95.90
13241;BME280;6687;47.790;7.322;2022-12-16T06:38:58;98178.69;;;0.58;95.68
13241;BME280;6687;47.790;7.322;2022-12-16T06:41:42;98188.09;;;0.61;95.75
13241;BME280;6687;47.790;7.322;2022-12-16T06:44:27;98191.66;;;0.66;95.37
13241;BME280;6687;47.790;7.322;2022-12-16T06:47:12;98203.50;;;0.65;95.26
13241;BME280;6687;47.790;7.322;2022-12-16T06:49:56;98199.19;;;0.63;95.12
13241;BME280;6687;47.790;7.322;2022-12-16T06:52:40;98206.94;;;0.66;95.01
13241;BME280;6687;47.790;7.322;2022-12-16T06:55:25;98206.06;;;0.65;94.89
13241;BME280;6687;47.790;7.322;2022-12-16T06:58:09;98212.94;;;0.68;94.75
13241;BME280;6687;47.790;7.322;2022-12-16T07:00:55;98215.34;;;0.63;94.57
13241;BME280;6687;47.790;7.322;2022-12-16T07:03:39;98218.84;;;0.67;94.46
13241;BME280;6687;47.790;7.322;2022-12-16T07:06:23;98223.34;;;0.75;94.41
13241;BME280;6687;47.790;7.322;2022-12-16T07:09:07;98226.56;;;0.68;94.26
13241;BME280;6687;47.790;7.322;2022-12-16T07:11:51;98226.59;;;0.70;94.11
13241;BME280;6687;47.790;7.322;2022-12-16T07:14:35;98234.25;;;0.70;94.24
13241;BME280;6687;47.790;7.322;2022-12-16T07:17:20;98236.91;;;0.74;94.28
13241;BME280;6687;47.790;7.322;2022-12-16T07:20:05;98243.72;;;0.75;94.25
13241;BME280;6687;47.790;7.322;2022-12-16T07:22:49;98248.81;;;0.75;94.38
13241;BME280;6687;47.790;7.322;2022-12-16T07:25:33;98258.09;;;0.72;94.23
13241;BME280;6687;47.790;7.322;2022-12-16T07:28:17;98260.66;;;0.72;93.97
13241;BME280;6687;47.790;7.322;2022-12-16T07:31:01;98265.69;;;0.70;94.15
13241;BME280;6687;47.790;7.322;2022-12-16T07:33:47;98274.94;;;0.67;93.97
13241;BME280;6687;47.790;7.322;2022-12-16T07:36:31;98272.50;;;0.71;93.88
13241;BME280;6687;47.790;7.322;2022-12-16T07:39:15;98275.03;;;0.70;93.78
13241;BME280;6687;47.790;7.322;2022-12-16T07:41:59;98276.47;;;0.62;93.41
13241;BME280;6687;47.790;7.322;2022-12-16T07:44:44;98285.13;;;0.67;93.17
13241;BME280;6687;47.790;7.322;2022-12-16T07:47:28;98287.69;;;0.67;92.97
13241;BME280;6687;47.790;7.322;2022-12-16T07:50:14;98295.91;;;0.58;92.52
13241;BME280;6687;47.790;7.322;2022-12-16T07:52:59;98302.06;;;0.65;92.45
13241;BME280;6687;47.790;7.322;2022-12-16T07:55:44;98304.75;;;0.69;92.34
13241;BME280;6687;47.790;7.322;2022-12-16T07:58:29;98308.19;;;0.70;92.34
13241;BME280;6687;47.790;7.322;2022-12-16T08:01:13;98319.19;;;0.69;92.42
13241;BME280;6687;47.790;7.322;2022-12-16T08:03:58;98325.91;;;0.67;92.36
13241;BME280;6687;47.790;7.322;2022-12-16T08:06:43;98329.13;;;0.61;91.76
13241;BME280;6687;47.790;7.322;2022-12-16T08:09:29;98339.50;;;0.66;91.64
13241;BME280;6687;47.790;7.322;2022-12-16T08:12:13;98336.09;;;0.67;91.51
13241;BME280;6687;47.790;7.322;2022-12-16T08:14:57;98346.41;;;0.70;91.50
13241;BME280;6687;47.790;7.322;2022-12-16T08:17:43;98353.94;;;0.67;91.35
13241;BME280;6687;47.790;7.322;2022-12-16T08:20:30;98356.63;;;0.70;91.00
13241;BME280;6687;47.790;7.322;2022-12-16T08:23:16;98362.66;;;0.73;91.40
13241;BME280;6687;47.790;7.322;2022-12-16T08:26:00;98362.38;;;0.64;91.18
13241;BME280;6687;47.790;7.322;2022-12-16T08:28:44;98377.63;;;0.63;90.87
13241;BME280;6687;47.790;7.322;2022-12-16T08:31:28;98374.47;;;0.70;90.81
13241;BME280;6687;47.790;7.322;2022-12-16T08:34:12;98375.19;;;0.66;90.87
13241;BME280;6687;47.790;7.322;2022-12-16T08:36:56;98377.72;;;0.66;90.88
13241;BME280;6687;47.790;7.322;2022-12-16T08:39:41;98383.75;;;0.68;90.56
13241;BME280;6687;47.790;7.322;2022-12-16T08:42:25;98385.25;;;0.63;90.47
13241;BME280;6687;47.790;7.322;2022-12-16T08:45:10;98393.94;;;0.68;90.27
13241;BME280;6687;47.790;7.322;2022-12-16T08:47:54;98388.91;;;0.71;90.25
13241;BME280;6687;47.790;7.322;2022-12-16T08:50:38;98390.56;;;0.69;90.18
13241;BME280;6687;47.790;7.322;2022-12-16T08:53:22;98400.44;;;0.59;90.32
13241;BME280;6687;47.790;7.322;2022-12-16T08:56:08;98399.91;;;0.68;90.18
13241;BME280;6687;47.790;7.322;2022-12-16T08:58:52;98411.47;;;0.58;89.81
13241;BME280;6687;47.790;7.322;2022-12-16T09:01:36;98415.28;;;0.71;89.93
13241;BME280;6687;47.790;7.322;2022-12-16T09:04:19;98423.38;;;0.59;89.64
13241;BME280;6687;47.790;7.322;2022-12-16T09:07:03;98421.16;;;0.69;89.56
13241;BME280;6687;47.790;7.322;2022-12-16T09:09:48;98422.78;;;0.67;89.43
13241;BME280;6687;47.790;7.322;2022-12-16T09:12:33;98425.38;;;0.68;89.77
13241;BME280;6687;47.790;7.322;2022-12-16T09:15:17;98431.34;;;0.69;89.74
13241;BME280;6687;47.790;7.322;2022-12-16T09:18:01;98436.19;;;0.61;89.23
13241;BME280;6687;47.790;7.322;2022-12-16T09:20:45;98436.13;;;0.59;88.96
13241;BME280;6687;47.790;7.322;2022-12-16T09:23:29;98447.34;;;0.65;88.80
13241;BME280;6687;47.790;7.322;2022-12-16T09:26:14;98447.69;;;0.75;88.90
13241;BME280;6687;47.790;7.322;2022-12-16T09:28:59;98459.25;;;0.64;88.35
13241;BME280;6687;47.790;7.322;2022-12-16T09:31:46;98466.84;;;0.63;88.69
13241;BME280;6687;47.790;7.322;2022-12-16T09:34:30;98465.41;;;0.71;88.47
13241;BME280;6687;47.790;7.322;2022-12-16T09:37:14;98462.97;;;0.74;88.33
13241;BME280;6687;47.790;7.322;2022-12-16T09:39:58;98463.16;;;0.80;88.42
13241;BME280;6687;47.790;7.322;2022-12-16T09:42:48;98461.41;;;0.53;87.88
13241;BME280;6687;47.790;7.322;2022-12-16T09:45:40;98474.81;;;0.73;87.84
13241;BME280;6687;47.790;7.322;2022-12-16T09:48:35;98481.22;;;0.61;87.67
13241;BME280;6687;47.790;7.322;2022-12-16T09:51:24;98472.25;;;0.72;87.57
13241;BME280;6687;47.790;7.322;2022-12-16T09:54:11;98484.63;;;0.61;86.84
13241;BME280;6687;47.790;7.322;2022-12-16T09:56:57;98482.13;;;0.63;86.62
13241;BME280;6687;47.790;7.322;2022-12-16T09:59:51;98476.06;;;0.59;85.95
13241;BME280;6687;47.790;7.322;2022-12-16T10:02:38;98487.88;;;0.57;85.50
13241;BME280;6687;47.790;7.322;2022-12-16T10:05:29;98476.72;;;0.53;85.09
13241;BME280;6687;47.790;7.322;2022-12-16T10:08:21;98486.91;;;0.53;84.86
13241;BME280;6687;47.790;7.322;2022-12-16T10:11:14;98485.19;;;0.52;84.49
13241;BME280;6687;47.790;7.322;2022-12-16T10:14:06;98481.59;;;0.47;84.42
13241;BME280;6687;47.790;7.322;2022-12-16T10:16:55;98486.41;;;0.38;84.08
13241;BME280;6687;47.790;7.322;2022-12-16T10:19:49;98491.06;;;0.50;83.82
13241;BME280;6687;47.790;7.322;2022-12-16T10:22:44;98490.72;;;0.41;83.56
13241;BME280;6687;47.790;7.322;2022-12-16T10:25:36;98490.81;;;0.44;83.45
13241;BME280;6687;47.790;7.322;2022-12-16T10:28:33;98497.88;;;0.51;83.95
13241;BME280;6687;47.790;7.322;2022-12-16T10:31:21;98488.44;;;0.48;84.14
13241;BME280;6687;47.790;7.322;2022-12-16T10:34:09;98491.31;;;0.33;83.62
13241;BME280;6687;47.790;7.322;2022-12-16T10:36:56;98489.56;;;0.31;83.46
13241;BME280;6687;47.790;7.322;2022-12-16T10:39:44;98484.56;;;0.34;83.23
13241;BME280;6687;47.790;7.322;2022-12-16T10:42:34;98486.09;;;0.29;82.69
13241;BME280;6687;47.790;7.322;2022-12-16T10:45:26;98480.97;;;0.29;82.68
13241;BME280;6687;47.790;7.322;2022-12-16T10:48:12;98496.84;;;0.22;82.25
13241;BME280;6687;47.790;7.322;2022-12-16T10:50:58;98493.38;;;0.18;82.19
13241;BME280;6687;47.790;7.322;2022-12-16T10:53:44;98494.22;;;0.18;82.33
13241;BME280;6687;47.790;7.322;2022-12-16T10:56:41;98489.84;;;0.14;82.13
13241;BME280;6687;47.790;7.322;2022-12-16T10:59:34;98496.66;;;0.15;82.03
13241;BME280;6687;47.790;7.322;2022-12-16T11:02:20;98489.84;;;0.14;82.02
13241;BME280;6687;47.790;7.322;2022-12-16T11:05:30;98490.75;;;0.16;82.41
13241;BME280;6687;47.790;7.322;2022-12-16T11:08:24;98501.59;;;0.11;82.31
13241;BME280;6687;47.790;7.322;2022-12-16T11:11:19;98499.09;;;0.12;82.53
13241;BME280;6687;47.790;7.322;2022-12-16T11:14:16;98501.66;;;0.12;82.74
13241;BME280;6687;47.790;7.322;2022-12-16T11:17:23;98505.31;;;-0.04;82.26
13241;BME280;6687;47.790;7.322;2022-12-16T11:20:15;98495.28;;;0.01;82.14
13241;BME280;6687;47.790;7.322;2022-12-16T11:23:13;98500.03;;;-0.08;82.12
13241;BME280;6687;47.790;7.322;2022-12-16T11:26:15;98491.47;;;-0.10;82.09
13241;BME280;6687;47.790;7.322;2022-12-16T11:29:10;98489.22;;;-0.03;82.59
13241;BME280;6687;47.790;7.322;2022-12-16T11:32:00;98492.47;;;-0.07;82.01
13241;BME280;6687;47.790;7.322;2022-12-16T11:34:51;98496.78;;;-0.04;82.29
13241;BME280;6687;47.790;7.322;2022-12-16T11:37:37;98507.16;;;0.01;82.18
13241;BME280;6687;47.790;7.322;2022-12-16T11:40:22;98503.41;;;-0.09;82.26
13241;BME280;6687;47.790;7.322;2022-12-16T11:43:24;98501.03;;;-0.05;82.74
13241;BME280;6687;47.790;7.322;2022-12-16T11:46:13;98503.78;;;0.02;83.30
13241;BME280;6687;47.790;7.322;2022-12-16T11:49:01;98508.94;;;0.03;83.28
13241;BME280;6687;47.790;7.322;2022-12-16T11:51:53;98510.00;;;0.08;83.56
13241;BME280;6687;47.790;7.322;2022-12-16T11:54:39;98511.13;;;0.16;84.13
13241;BME280;6687;47.790;7.322;2022-12-16T11:57:40;98515.53;;;0.21;84.11
13241;BME280;6687;47.790;7.322;2022-12-16T12:00:28;98514.69;;;0.22;84.11
13241;BME280;6687;47.790;7.322;2022-12-16T12:03:15;98519.19;;;0.29;84.23
13241;BME280;6687;47.790;7.322;2022-12-16T12:06:08;98516.75;;;0.32;84.31
13241;BME280;6687;47.790;7.322;2022-12-16T12:09:08;98526.25;;;0.36;84.20
13241;BME280;6687;47.790;7.322;2022-12-16T12:11:59;98528.13;;;0.42;84.11
13241;BME280;6687;47.790;7.322;2022-12-16T12:14:52;98524.22;;;0.51;84.05
13241;BME280;6687;47.790;7.322;2022-12-16T12:17:45;98527.66;;;0.52;84.46
13241;BME280;6687;47.790;7.322;2022-12-16T12:20:39;98533.69;;;0.54;84.24
13241;BME280;6687;47.790;7.322;2022-12-16T12:23:34;98536.38;;;0.58;84.36
13241;BME280;6687;47.790;7.322;2022-12-16T12:26:27;98544.16;;;0.63;84.36
13241;BME280;6687;47.790;7.322;2022-12-16T12:29:18;98549.59;;;0.72;84.45
13241;BME280;6687;47.790;7.322;2022-12-16T12:32:14;98549.59;;;0.72;84.49
13241;BME280;6687;47.790;7.322;2022-12-16T12:35:15;98552.19;;;0.74;84.70
13241;BME280;6687;47.790;7.322;2022-12-16T12:38:07;98559.78;;;0.72;84.36
13241;BME280;6687;47.790;7.322;2022-12-16T12:41:00;98559.72;;;0.71;84.08
13241;BME280;6687;47.790;7.322;2022-12-16T12:43:57;98555.66;;;0.76;83.90
13241;BME280;6687;47.790;7.322;2022-12-16T12:46:49;98553.63;;;0.66;83.55
13241;BME280;6687;47.790;7.322;2022-12-16T12:49:42;98557.38;;;0.77;83.25
13241;BME280;6687;47.790;7.322;2022-12-16T12:52:52;98553.78;;;0.70;83.08
13241;BME280;6687;47.790;7.322;2022-12-16T12:55:42;98556.91;;;0.63;82.45
13241;BME280;6687;47.790;7.322;2022-12-16T12:58:28;98555.34;;;0.67;82.18
13241;BME280;6687;47.790;7.322;2022-12-16T13:01:14;98550.38;;;0.70;83.34
13241;BME280;6687;47.790;7.322;2022-12-16T13:04:03;98564.13;;;0.75;82.18
13241;BME280;6687;47.790;7.322;2022-12-16T13:06:50;98564.22;;;0.78;82.14
13241;BME280;6687;47.790;7.322;2022-12-16T13:09:37;98571.81;;;0.76;82.58
13241;BME280;6687;47.790;7.322;2022-12-16T13:12:27;98569.66;;;0.63;82.15
13241;BME280;6687;47.790;7.322;2022-12-16T13:15:33;98582.84;;;0.51;81.85
13241;BME280;6687;47.790;7.322;2022-12-16T13:18:23;98583.50;;;0.70;82.28
13241;BME280;6687;47.790;7.322;2022-12-16T13:24:49;98588.22;;;0.59;82.37
13241;BME280;6687;47.790;7.322;2022-12-16T13:27:46;98594.00;;;0.55;82.17
13241;BME280;6687;47.790;7.322;2022-12-16T13:30:33;98599.38;;;0.63;82.11
13241;BME280;6687;47.790;7.322;2022-12-16T13:33:26;98597.53;;;0.58;82.15
13241;BME280;6687;47.790;7.322;2022-12-16T13:36:11;98603.44;;;0.57;81.85
13241;BME280;6687;47.790;7.322;2022-12-16T13:39:04;98610.38;;;0.62;81.91
13241;BME280;6687;47.790;7.322;2022-12-16T13:41:59;98613.63;;;0.57;81.92
13241;BME280;6687;47.790;7.322;2022-12-16T13:44:56;98617.28;;;0.40;82.12
13241;BME280;6687;47.790;7.322;2022-12-16T13:48:02;98618.53;;;0.51;82.24
13241;BME280;6687;47.790;7.322;2022-12-16T13:50:49;98622.38;;;0.40;81.79
13241;BME280;6687;47.790;7.322;2022-12-16T13:53:38;98624.66;;;0.32;81.54
13241;BME280;6687;47.790;7.322;2022-12-16T13:56:25;98634.19;;;0.38;81.36
13241;BME280;6687;47.790;7.322;2022-12-16T13:59:19;98628.41;;;0.19;81.25
13241;BME280;6687;47.790;7.322;2022-12-16T14:02:17;98637.78;;;0.21;80.96
13241;BME280;6687;47.790;7.322;2022-12-16T14:05:03;98635.03;;;0.14;80.71
13241;BME280;6687;47.790;7.322;2022-12-16T14:07:48;98652.25;;;-0.01;79.99
13241;BME280;6687;47.790;7.322;2022-12-16T14:10:54;98652.31;;;0.01;79.81
13241;BME280;6687;47.790;7.322;2022-12-16T14:13:43;98658.81;;;-0.08;79.49
13241;BME280;6687;47.790;7.322;2022-12-16T14:16:36;98664.50;;;-0.13;79.09
13241;BME280;6687;47.790;7.322;2022-12-16T14:19:26;98671.91;;;-0.19;79.12
13241;BME280;6687;47.790;7.322;2022-12-16T14:22:26;98676.31;;;-0.15;79.12
13241;BME280;6687;47.790;7.322;2022-12-16T14:25:13;98679.19;;;-0.29;78.96
13241;BME280;6687;47.790;7.322;2022-12-16T14:27:58;98679.19;;;-0.29;79.11
13241;BME280;6687;47.790;7.322;2022-12-16T14:30:43;98680.84;;;-0.29;78.91
13241;BME280;6687;47.790;7.322;2022-12-16T14:33:29;98677.44;;;-0.30;79.15
13241;BME280;6687;47.790;7.322;2022-12-16T14:36:21;98684.25;;;-0.29;79.13
13241;BME280;6687;47.790;7.322;2022-12-16T14:39:10;98680.53;;;-0.37;79.78
13241;BME280;6687;47.790;7.322;2022-12-16T14:41:54;98690.91;;;-0.32;79.02
13241;BME280;6687;47.790;7.322;2022-12-16T14:44:39;98695.28;;;-0.30;79.16
13241;BME280;6687;47.790;7.322;2022-12-16T14:47:38;98694.34;;;-0.32;79.12
13241;BME280;6687;47.790;7.322;2022-12-16T14:50:27;98696.19;;;-0.28;79.47
13241;BME280;6687;47.790;7.322;2022-12-16T14:53:13;98706.25;;;-0.31;79.04
13241;BME280;6687;47.790;7.322;2022-12-16T14:56:12;98708.53;;;-0.37;79.20
13241;BME280;6687;47.790;7.322;2022-12-16T14:59:13;98719.16;;;-0.47;79.05
13241;BME280;6687;47.790;7.322;2022-12-16T15:02:01;98713.69;;;-0.35;79.55
13241;BME280;6687;47.790;7.322;2022-12-16T15:04:52;98721.94;;;-0.41;79.33
13241;BME280;6687;47.790;7.322;2022-12-16T15:07:38;98724.25;;;-0.47;79.18
13241;BME280;6687;47.790;7.322;2022-12-16T15:10:24;98727.47;;;-0.51;79.35
13241;BME280;6687;47.790;7.322;2022-12-16T15:13:14;98737.91;;;-0.45;79.17
13241;BME280;6687;47.790;7.322;2022-12-16T15:16:00;98744.34;;;-0.53;79.12
13241;BME280;6687;47.790;7.322;2022-12-16T15:18:46;98750.38;;;-0.51;79.04
13241;BME280;6687;47.790;7.322;2022-12-16T15:21:32;98750.22;;;-0.54;78.74
13241;BME280;6687;47.790;7.322;2022-12-16T15:24:19;98757.84;;;-0.54;78.82
13241;BME280;6687;47.790;7.322;2022-12-16T15:27:13;98754.28;;;-0.59;78.72
13241;BME280;6687;47.790;7.322;2022-12-16T15:29:57;98764.56;;;-0.56;78.87
13241;BME280;6687;47.790;7.322;2022-12-16T15:32:43;98771.16;;;-0.62;78.95
13241;BME280;6687;47.790;7.322;2022-12-16T15:35:35;98779.44;;;-0.66;78.74
13241;BME280;6687;47.790;7.322;2022-12-16T15:38:26;98781.84;;;-0.69;78.60
13241;BME280;6687;47.790;7.322;2022-12-16T15:41:20;98792.81;;;-0.70;78.32
13241;BME280;6687;47.790;7.322;2022-12-16T15:44:17;98793.56;;;-0.72;78.36
13241;BME280;6687;47.790;7.322;2022-12-16T15:47:02;98802.72;;;-0.76;78.39
13241;BME280;6687;47.790;7.322;2022-12-16T15:49:47;98808.69;;;-0.75;78.29
13241;BME280;6687;47.790;7.322;2022-12-16T15:52:36;98820.47;;;-0.77;78.11
13241;BME280;6687;47.790;7.322;2022-12-16T15:55:29;98823.69;;;-0.82;78.26
13241;BME280;6687;47.790;7.322;2022-12-16T15:58:27;98822.78;;;-0.82;78.23
13241;BME280;6687;47.790;7.322;2022-12-16T16:01:13;98826.75;;;-0.89;77.95
13241;BME280;6687;47.790;7.322;2022-12-16T16:03:58;98832.59;;;-0.91;77.92
13241;BME280;6687;47.790;7.322;2022-12-16T16:06:46;98842.47;;;-0.97;77.72
13241;BME280;6687;47.790;7.322;2022-12-16T16:09:32;98843.25;;;-0.98;77.76
13241;BME280;6687;47.790;7.322;2022-12-16T16:12:18;98854.09;;;-1.03;77.44
13241;BME280;6687;47.790;7.322;2022-12-16T16:15:06;98853.94;;;-1.06;77.33
13241;BME280;6687;47.790;7.322;2022-12-16T16:17:54;98859.03;;;-1.06;77.24
13241;BME280;6687;47.790;7.322;2022-12-16T16:20:39;98870.78;;;-1.08;77.36
13241;BME280;6687;47.790;7.322;2022-12-16T16:23:23;98876.63;;;-1.10;77.20
13241;BME280;6687;47.790;7.322;2022-12-16T16:26:09;98874.91;;;-1.11;77.02
13241;BME280;6687;47.790;7.322;2022-12-16T16:28:53;98880.56;;;-1.17;77.08
13241;BME280;6687;47.790;7.322;2022-12-16T16:31:39;98887.44;;;-1.14;76.94
13241;BME280;6687;47.790;7.322;2022-12-16T16:34:23;98879.75;;;-1.16;77.03
13241;BME280;6687;47.790;7.322;2022-12-16T16:37:12;98880.56;;;-1.17;77.04
13241;BME280;6687;47.790;7.322;2022-12-16T16:39:56;98885.63;;;-1.17;77.01
13241;BME280;6687;47.790;7.322;2022-12-16T16:42:41;98882.16;;;-1.19;76.89
13241;BME280;6687;47.790;7.322;2022-12-16T16:45:24;98887.25;;;-1.19;76.98
13241;BME280;6687;47.790;7.322;2022-12-16T16:48:12;98887.75;;;-1.26;77.06
13241;BME280;6687;47.790;7.322;2022-12-16T16:50:58;98890.44;;;-1.23;76.94
13241;BME280;6687;47.790;7.322;2022-12-16T16:53:43;98900.38;;;-1.28;76.89
13241;BME280;6687;47.790;7.322;2022-12-16T16:56:30;98905.41;;;-1.29;76.98
13241;BME280;6687;47.790;7.322;2022-12-16T16:59:16;98902.19;;;-1.25;77.00
13241;BME280;6687;47.790;7.322;2022-12-16T17:02:00;98912.22;;;-1.28;76.86
13241;BME280;6687;47.790;7.322;2022-12-16T17:04:46;98920.78;;;-1.26;76.65
13241;BME280;6687;47.790;7.322;2022-12-16T17:07:30;98926.06;;;-1.40;76.53
13241;BME280;6687;47.790;7.322;2022-12-16T17:10:14;98931.31;;;-1.36;76.33
13241;BME280;6687;47.790;7.322;2022-12-16T17:12:58;98935.91;;;-1.29;76.41
13241;BME280;6687;47.790;7.322;2022-12-16T17:15:42;98935.44;;;-1.38;76.25
13241;BME280;6687;47.790;7.322;2022-12-16T17:18:27;98935.00;;;-1.30;76.56
13241;BME280;6687;47.790;7.322;2022-12-16T17:21:12;98939.22;;;-1.30;76.60
13241;BME280;6687;47.790;7.322;2022-12-16T17:23:56;98940.81;;;-1.32;76.43
13241;BME280;6687;47.790;7.322;2022-12-16T17:26:41;98945.97;;;-1.31;76.33
13241;BME280;6687;47.790;7.322;2022-12-16T17:29:27;98948.28;;;-1.35;76.33
13241;BME280;6687;47.790;7.322;2022-12-16T17:32:11;98944.00;;;-1.36;76.31
13241;BME280;6687;47.790;7.322;2022-12-16T17:34:56;98954.00;;;-1.40;76.04
13241;BME280;6687;47.790;7.322;2022-12-16T17:37:41;98960.56;;;-1.45;76.01
13241;BME280;6687;47.790;7.322;2022-12-16T17:40:26;98969.59;;;-1.50;75.65
13241;BME280;6687;47.790;7.322;2022-12-16T17:43:10;98977.22;;;-1.50;75.73
13241;BME280;6687;47.790;7.322;2022-12-16T17:45:56;98982.31;;;-1.50;75.60
13241;BME280;6687;47.790;7.322;2022-12-16T17:48:40;98986.31;;;-1.55;75.34
13241;BME280;6687;47.790;7.322;2022-12-16T17:51:24;98990.44;;;-1.57;75.03
13241;BME280;6687;47.790;7.322;2022-12-16T17:54:10;98997.09;;;-1.59;74.95
13241;BME280;6687;47.790;7.322;2022-12-16T17:56:54;99002.03;;;-1.62;74.81
13241;BME280;6687;47.790;7.322;2022-12-16T17:59:38;99005.41;;;-1.62;74.86
13241;BME280;6687;47.790;7.322;2022-12-16T18:02:22;99000.28;;;-1.63;74.55
13241;BME280;6687;47.790;7.322;2022-12-16T18:05:07;99011.31;;;-1.63;74.27
13241;BME280;6687;47.790;7.322;2022-12-16T18:07:51;99019.03;;;-1.61;74.04
13241;BME280;6687;47.790;7.322;2022-12-16T18:10:37;99012.81;;;-1.66;74.43
13241;BME280;6687;47.790;7.322;2022-12-16T18:13:21;99016.13;;;-1.67;74.18
13241;BME280;6687;47.790;7.322;2022-12-16T18:16:05;99020.28;;;-1.69;74.38
13241;BME280;6687;47.790;7.322;2022-12-16T18:18:50;99024.41;;;-1.71;74.09
13241;BME280;6687;47.790;7.322;2022-12-16T18:21:34;99035.38;;;-1.72;73.90
13241;BME280;6687;47.790;7.322;2022-12-16T18:24:18;99031.06;;;-1.73;73.94
13241;BME280;6687;47.790;7.322;2022-12-16T18:27:03;99034.41;;;-1.74;73.74
13241;BME280;6687;47.790;7.322;2022-12-16T18:29:47;99038.53;;;-1.76;73.76
13241;BME280;6687;47.790;7.322;2022-12-16T18:32:31;99039.31;;;-1.77;73.75
13241;BME280;6687;47.790;7.322;2022-12-16T18:35:16;99049.34;;;-1.81;73.70
13241;BME280;6687;47.790;7.322;2022-12-16T18:38:00;99056.97;;;-1.81;73.63
13241;BME280;6687;47.790;7.322;2022-12-16T18:40:45;99064.50;;;-1.82;73.34
13241;BME280;6687;47.790;7.322;2022-12-16T18:43:30;99067.13;;;-1.81;73.61
13241;BME280;6687;47.790;7.322;2022-12-16T18:46:14;99072.75;;;-1.86;73.67
13241;BME280;6687;47.790;7.322;2022-12-16T18:48:58;99073.59;;;-1.86;73.64
13241;BME280;6687;47.790;7.322;2022-12-16T18:51:43;99077.41;;;-1.94;73.51
13241;BME280;6687;47.790;7.322;2022-12-16T18:54:28;99077.31;;;-1.95;73.08
13241;BME280;6687;47.790;7.322;2022-12-16T18:57:12;99084.00;;;-1.97;73.14
13241;BME280;6687;47.790;7.322;2022-12-16T19:00:05;99086.44;;;-1.99;72.97
13241;BME280;6687;47.790;7.322;2022-12-16T19:02:50;99089.97;;;-1.97;73.01
13241;BME280;6687;47.790;7.322;2022-12-16T19:05:34;99091.59;;;-1.97;73.25
13241;BME280;6687;47.790;7.322;2022-12-16T19:08:29;99096.06;;;-1.93;73.55
13241;BME280;6687;47.790;7.322;2022-12-16T19:11:14;99098.03;;;-1.88;73.80
13241;BME280;6687;47.790;7.322;2022-12-16T19:13:58;99097.28;;;-1.87;73.92
13241;BME280;6687;47.790;7.322;2022-12-16T19:16:44;99104.41;;;-1.80;74.19
13241;BME280;6687;47.790;7.322;2022-12-16T19:19:28;99107.75;;;-1.81;74.35
13241;BME280;6687;47.790;7.322;2022-12-16T19:22:14;99104.56;;;-1.76;74.72
13241;BME280;6687;47.790;7.322;2022-12-16T19:24:58;99106.47;;;-1.72;74.96
13241;BME280;6687;47.790;7.322;2022-12-16T19:27:42;99100.59;;;-1.71;75.03
13241;BME280;6687;47.790;7.322;2022-12-16T19:30:26;99099.09;;;-1.68;75.14
13241;BME280;6687;47.790;7.322;2022-12-16T19:33:12;99101.72;;;-1.66;75.34
13241;BME280;6687;47.790;7.322;2022-12-16T19:35:56;99102.66;;;-1.64;75.77
13241;BME280;6687;47.790;7.322;2022-12-16T19:38:36;99109.50;;;-1.63;75.92
13241;BME280;6687;47.790;7.322;2022-12-16T19:41:23;99109.66;;;-1.60;76.13
13241;BME280;6687;47.790;7.322;2022-12-16T19:44:07;99105.72;;;-1.55;76.04
13241;BME280;6687;47.790;7.322;2022-12-16T19:46:52;99120.13;;;-1.54;76.14
13241;BME280;6687;47.790;7.322;2022-12-16T19:49:37;99126.03;;;-1.55;76.40
13241;BME280;6687;47.790;7.322;2022-12-16T19:52:22;99129.66;;;-1.50;76.49
13241;BME280;6687;47.790;7.322;2022-12-16T19:55:11;99133.31;;;-1.45;76.69
13241;BME280;6687;47.790;7.322;2022-12-16T19:57:55;99138.56;;;-1.42;77.04
13241;BME280;6687;47.790;7.322;2022-12-16T20:00:40;99145.41;;;-1.41;76.96
13241;BME280;6687;47.790;7.322;2022-12-16T20:03:24;99145.41;;;-1.41;77.05
13241;BME280;6687;47.790;7.322;2022-12-16T20:06:11;99143.63;;;-1.42;77.10
13241;BME280;6687;47.790;7.322;2022-12-16T20:08:55;99148.72;;;-1.42;77.25
13241;BME280;6687;47.790;7.322;2022-12-16T20:11:42;99155.56;;;-1.41;77.19
13241;BME280;6687;47.790;7.322;2022-12-16T20:14:27;99154.59;;;-1.43;77.33
13241;BME280;6687;47.790;7.322;2022-12-16T20:17:11;99167.31;;;-1.43;77.53
13241;BME280;6687;47.790;7.322;2022-12-16T20:19:56;99164.84;;;-1.41;77.58
13241;BME280;6687;47.790;7.322;2022-12-16T20:22:41;99168.25;;;-1.41;77.78
13241;BME280;6687;47.790;7.322;2022-12-16T20:25:26;99172.53;;;-1.40;77.92
13241;BME280;6687;47.790;7.322;2022-12-16T20:28:11;99174.22;;;-1.40;78.10
13241;BME280;6687;47.790;7.322;2022-12-16T20:30:59;99175.09;;;-1.40;78.17
13241;BME280;6687;47.790;7.322;2022-12-16T20:33:43;99178.53;;;-1.39;78.54
13241;BME280;6687;47.790;7.322;2022-12-16T20:36:28;99192.88;;;-1.40;78.76
13241;BME280;6687;47.790;7.322;2022-12-16T20:39:13;99183.50;;;-1.41;78.84
13241;BME280;6687;47.790;7.322;2022-12-16T20:41:56;99195.50;;;-1.38;79.11
13241;BME280;6687;47.790;7.322;2022-12-16T20:44:41;99194.63;;;-1.38;78.99
13241;BME280;6687;47.790;7.322;2022-12-16T20:47:25;99193.03;;;-1.36;79.36
13241;BME280;6687;47.790;7.322;2022-12-16T20:50:09;99195.69;;;-1.35;79.41
13241;BME280;6687;47.790;7.322;2022-12-16T20:52:52;99201.63;;;-1.34;79.35
13241;BME280;6687;47.790;7.322;2022-12-16T20:55:38;99205.13;;;-1.32;79.57
13241;BME280;6687;47.790;7.322;2022-12-16T20:58:22;99214.41;;;-1.33;79.52
13241;BME280;6687;47.790;7.322;2022-12-16T21:01:06;99217.81;;;-1.32;79.75
13241;BME280;6687;47.790;7.322;2022-12-16T21:03:50;99216.88;;;-1.34;79.70
13241;BME280;6687;47.790;7.322;2022-12-16T21:06:34;99224.31;;;-1.37;79.47
13241;BME280;6687;47.790;7.322;2022-12-16T21:09:20;99221.63;;;-1.41;79.62
13241;BME280;6687;47.790;7.322;2022-12-16T21:12:06;99226.72;;;-1.41;79.46
13241;BME280;6687;47.790;7.322;2022-12-16T21:14:50;99229.88;;;-1.45;79.41
13241;BME280;6687;47.790;7.322;2022-12-16T21:17:34;99238.13;;;-1.49;79.45
13241;BME280;6687;47.790;7.322;2022-12-16T21:20:18;99240.50;;;-1.52;79.37